createdAt,value
2023-03-31T00:02:13.850Z,4.90
2023-03-31T00:04:52.626Z,6.70
2023-03-31T00:07:23.438Z,10.80
2023-03-31T00:09:50.221Z,7.93
2023-03-31T00:12:17.177Z,9.07
2023-03-31T00:14:44.454Z,8.40
2023-03-31T00:17:12.265Z,6.87
2023-03-31T00:19:41.874Z,3.87
2023-03-31T00:22:08.981Z,6.20
2023-03-31T00:24:35.769Z,4.53
2023-03-31T00:27:04.275Z,6.67
2023-03-31T00:29:33.729Z,8.43
2023-03-31T00:32:00.508Z,6.30
2023-03-31T00:34:27.632Z,7.30
2023-03-31T00:36:56.567Z,10.40
2023-03-31T00:39:24.851Z,7.23
2023-03-31T00:41:52.204Z,10.67
2023-03-31T00:44:25.471Z,7.47
2023-03-31T00:46:56.362Z,7.33
2023-03-31T00:49:37.519Z,8.93
2023-03-31T00:52:13.557Z,10.37
2023-03-31T00:54:42.340Z,6.43
2023-03-31T00:57:09.939Z,8.47
2023-03-31T00:59:46.048Z,8.90
2023-03-31T01:02:14.616Z,8.17
2023-03-31T01:04:54.933Z,6.63
2023-03-31T01:07:33.692Z,7.07
2023-03-31T01:10:03.831Z,4.97
2023-03-31T01:12:32.789Z,5.27
2023-03-31T01:15:00.109Z,5.83
2023-03-31T01:17:30.001Z,6.87
2023-03-31T01:20:25.911Z,7.07
2023-03-31T01:23:30.866Z,8.77
2023-03-31T01:26:03.714Z,7.10
2023-03-31T01:29:08.932Z,6.60
2023-03-31T01:32:22.115Z,7.23
2023-03-31T01:35:26.214Z,9.03
2023-03-31T01:38:15.372Z,9.20
2023-03-31T01:40:41.957Z,10.07
2023-03-31T01:43:29.417Z,6.93
2023-03-31T01:46:10.156Z,5.63
2023-03-31T01:48:39.307Z,7.43
2023-03-31T01:51:15.557Z,9.77
2023-03-31T01:53:54.947Z,7.73
2023-03-31T01:56:36.964Z,6.30
2023-03-31T01:59:14.593Z,6.87
2023-03-31T02:01:49.732Z,6.90
2023-03-31T02:04:16.385Z,14.97
2023-03-31T02:06:50.211Z,6.83
2023-03-31T02:09:22.227Z,12.67
2023-03-31T02:11:50.609Z,8.10
2023-03-31T02:14:22.518Z,6.83
2023-03-31T02:16:52.607Z,9.63
2023-03-31T02:19:21.625Z,6.40
2023-03-31T02:21:49.956Z,11.37
2023-03-31T02:24:20.065Z,8.10
2023-03-31T02:27:03.769Z,4.07
2023-03-31T02:29:30.888Z,2.07
2023-03-31T02:32:37.617Z,2.83
2023-03-31T02:35:07.116Z,1.70
2023-03-31T02:37:34.422Z,3.10
2023-03-31T02:40:08.983Z,2.63
2023-03-31T02:42:35.695Z,3.17
2023-03-31T02:45:05.436Z,3.57
2023-03-31T02:47:32.836Z,1.60
2023-03-31T02:50:01.791Z,2.37
2023-03-31T02:52:33.603Z,1.53
2023-03-31T02:55:09.034Z,4.03
2023-03-31T02:58:07.527Z,2.07
2023-03-31T03:00:52.733Z,2.50
2023-03-31T03:04:02.317Z,2.50
2023-03-31T03:06:55.092Z,1.50
2023-03-31T03:09:59.491Z,1.60
2023-03-31T03:12:38.120Z,2.27
2023-03-31T03:15:21.475Z,2.40
2023-03-31T03:17:49.365Z,1.53
2023-03-31T03:20:16.407Z,2.43
2023-03-31T03:22:43.485Z,1.80
2023-03-31T03:25:13.759Z,1.97
2023-03-31T03:27:40.932Z,1.40
2023-03-31T03:30:10.878Z,1.10
2023-03-31T03:32:37.668Z,2.90
2023-03-31T03:35:06.192Z,2.77
2023-03-31T03:37:32.856Z,1.90
2023-03-31T03:39:59.476Z,1.57
2023-03-31T03:42:26.073Z,2.57
2023-03-31T03:44:52.717Z,1.77
2023-03-31T03:47:19.352Z,1.90
2023-03-31T03:49:45.974Z,2.67
2023-03-31T03:52:12.583Z,2.30
2023-03-31T03:54:39.225Z,2.63
2023-03-31T03:57:07.385Z,1.50
2023-03-31T03:59:34.122Z,4.63
2023-03-31T04:02:00.737Z,1.53
2023-03-31T04:04:27.373Z,2.27
2023-03-31T04:06:54.063Z,6.67
2023-03-31T04:09:20.739Z,2.00
2023-03-31T04:11:47.415Z,2.33
2023-03-31T04:14:14.071Z,2.80
2023-03-31T04:16:40.843Z,15.10
2023-03-31T04:19:08.503Z,7.57
2023-03-31T04:21:35.373Z,3.20
2023-03-31T04:24:04.529Z,2.00
2023-03-31T04:26:43.309Z,3.33
2023-03-31T04:29:16.269Z,2.20
2023-03-31T04:31:43.510Z,2.57
2023-03-31T04:34:14.507Z,1.90
2023-03-31T04:36:49.749Z,2.60
2023-03-31T04:39:18.277Z,2.27
2023-03-31T04:41:45.542Z,6.67
2023-03-31T04:44:12.375Z,6.77
2023-03-31T04:46:39.039Z,2.47
2023-03-31T04:49:05.975Z,4.20
2023-03-31T04:51:32.776Z,2.13
2023-03-31T04:53:59.401Z,1.80
2023-03-31T04:56:26.783Z,5.63
2023-03-31T04:58:53.691Z,2.30
2023-03-31T05:01:20.673Z,1.93
2023-03-31T05:03:48.173Z,4.07
2023-03-31T05:06:18.214Z,4.93
2023-03-31T05:08:45.326Z,3.93
2023-03-31T05:11:11.966Z,5.77
2023-03-31T05:13:38.598Z,2.13
2023-03-31T05:16:14.655Z,2.97
2023-03-31T05:18:42.039Z,3.67
2023-03-31T05:21:17.722Z,1.77
2023-03-31T05:23:45.041Z,2.20
2023-03-31T05:26:12.182Z,2.80
2023-03-31T05:28:39.462Z,5.37
2023-03-31T05:31:07.471Z,6.33
2023-03-31T05:33:34.980Z,5.87
2023-03-31T05:36:02.322Z,4.33
2023-03-31T05:38:31.336Z,8.10
2023-03-31T05:40:58.342Z,4.23
2023-03-31T05:43:25.236Z,1.83
2023-03-31T05:45:51.936Z,2.20
2023-03-31T05:48:18.740Z,2.97
2023-03-31T05:50:45.935Z,3.40
2023-03-31T05:53:12.576Z,3.47
2023-03-31T05:55:39.560Z,1.10
2023-03-31T05:58:06.946Z,6.03
2023-03-31T06:00:34.056Z,1.57
2023-03-31T06:03:00.734Z,3.60
2023-03-31T06:05:27.806Z,3.50
2023-03-31T06:07:54.411Z,2.97
2023-03-31T06:10:21.094Z,4.63
2023-03-31T06:12:47.779Z,2.37
2023-03-31T06:15:14.472Z,2.87
2023-03-31T06:17:41.310Z,2.87
2023-03-31T06:20:23.944Z,2.17
2023-03-31T06:22:53.709Z,5.73
2023-03-31T06:25:20.381Z,1.83
2023-03-31T06:27:47.042Z,3.90
2023-03-31T06:30:13.812Z,3.27
2023-03-31T06:32:40.590Z,1.30
2023-03-31T06:35:07.572Z,2.03
2023-03-31T06:37:34.226Z,2.40
2023-03-31T06:40:00.856Z,6.47
2023-03-31T06:42:27.507Z,5.17
2023-03-31T06:44:55.839Z,10.03
2023-03-31T06:47:22.586Z,2.17
2023-03-31T06:49:49.593Z,9.20
2023-03-31T06:52:16.589Z,2.93
2023-03-31T06:54:43.333Z,3.00
2023-03-31T06:57:10.129Z,4.13
2023-03-31T06:59:36.906Z,1.77
2023-03-31T07:02:04.082Z,6.23
2023-03-31T07:04:30.685Z,5.87
2023-03-31T07:06:59.148Z,6.07
2023-03-31T07:09:25.793Z,3.87
2023-03-31T07:11:52.360Z,1.60
2023-03-31T07:14:19.019Z,3.27
2023-03-31T07:16:45.854Z,4.53
2023-03-31T07:19:12.837Z,3.63
2023-03-31T07:21:39.491Z,5.77
2023-03-31T07:24:06.333Z,3.20
2023-03-31T07:26:33.326Z,4.57
2023-03-31T07:29:00.426Z,3.03
2023-03-31T07:31:27.131Z,5.93
2023-03-31T07:33:53.741Z,2.67
2023-03-31T07:36:21.231Z,3.87
2023-03-31T07:38:49.719Z,4.37
2023-03-31T07:41:21.266Z,2.43
2023-03-31T07:43:49.438Z,8.57
2023-03-31T07:46:18.579Z,6.30
2023-03-31T07:48:46.706Z,5.27
2023-03-31T07:51:18.549Z,5.00
2023-03-31T07:53:46.075Z,2.50
2023-03-31T07:56:13.285Z,7.50
2023-03-31T07:58:40.067Z,2.93
2023-03-31T08:01:08.075Z,4.67
2023-03-31T08:03:34.963Z,5.77
2023-03-31T08:06:02.237Z,5.50
2023-03-31T08:08:28.868Z,5.87
2023-03-31T08:10:55.533Z,3.77
2023-03-31T08:13:22.179Z,6.23
2023-03-31T08:15:48.879Z,2.93
2023-03-31T08:18:16.592Z,2.90
2023-03-31T08:20:43.208Z,2.20
2023-03-31T08:23:11.619Z,4.07
2023-03-31T08:25:38.671Z,4.80
2023-03-31T08:28:06.925Z,4.77
2023-03-31T08:30:33.693Z,4.10
2023-03-31T08:33:00.607Z,3.33
2023-03-31T08:35:27.315Z,3.27
2023-03-31T08:37:53.937Z,2.47
2023-03-31T08:40:26.066Z,3.13
2023-03-31T08:43:08.811Z,4.40
2023-03-31T08:45:40.115Z,6.97
2023-03-31T08:48:37.631Z,5.57
2023-03-31T08:51:16.559Z,2.47
2023-03-31T08:53:49.818Z,3.23
2023-03-31T08:56:20.173Z,3.33
2023-03-31T08:58:50.103Z,4.40
2023-03-31T09:01:54.803Z,3.73
2023-03-31T09:04:59.122Z,6.23
2023-03-31T09:07:28.535Z,4.20
2023-03-31T09:10:21.423Z,2.83
2023-03-31T09:13:02.844Z,4.77
2023-03-31T09:15:32.747Z,8.60
2023-03-31T09:18:07.405Z,1.50
2023-03-31T09:20:41.046Z,3.40
2023-03-31T09:23:32.793Z,2.03
2023-03-31T09:26:02.666Z,10.73
2023-03-31T09:28:39.840Z,4.60
2023-03-31T09:31:19.801Z,3.47
2023-03-31T09:33:48.182Z,5.53
2023-03-31T09:36:17.744Z,3.90
2023-03-31T09:38:47.060Z,5.37
2023-03-31T09:41:16.714Z,4.67
2023-03-31T09:43:46.292Z,4.33
2023-03-31T09:46:26.448Z,2.27
2023-03-31T09:49:06.278Z,4.37
2023-03-31T09:51:37.332Z,4.80
2023-03-31T09:54:22.362Z,2.70
2023-03-31T09:56:53.762Z,3.30
2023-03-31T09:59:21.773Z,3.03
2023-03-31T10:01:57.016Z,4.03
2023-03-31T10:04:27.636Z,2.07
2023-03-31T10:06:55.877Z,6.70
2023-03-31T10:09:27.528Z,7.00
2023-03-31T10:12:07.952Z,5.57
2023-03-31T10:15:02.188Z,5.87
2023-03-31T10:17:29.285Z,2.00
2023-03-31T10:20:06.396Z,4.63
2023-03-31T10:22:33.280Z,5.47
2023-03-31T10:25:29.221Z,4.17
2023-03-31T10:27:57.275Z,4.30
2023-03-31T10:30:28.836Z,4.87
2023-03-31T10:32:55.487Z,3.90
2023-03-31T10:35:50.145Z,6.67
2023-03-31T10:38:27.880Z,2.67
2023-03-31T10:40:59.132Z,5.60
2023-03-31T10:43:29.504Z,2.87
2023-03-31T10:46:00.767Z,3.93
2023-03-31T10:48:31.395Z,2.73
2023-03-31T10:51:19.089Z,4.63
2023-03-31T10:53:48.485Z,5.70
2023-03-31T10:56:36.650Z,6.33
2023-03-31T10:59:29.857Z,5.13
2023-03-31T11:02:33.826Z,3.47
2023-03-31T11:05:00.926Z,2.67
2023-03-31T11:07:50.969Z,2.10
2023-03-31T11:10:43.239Z,3.60
2023-03-31T11:13:33.858Z,5.40
2023-03-31T11:16:25.311Z,5.87
2023-03-31T11:18:54.542Z,2.93
2023-03-31T11:21:36.625Z,5.10
2023-03-31T11:24:19.910Z,4.63
2023-03-31T11:27:00.865Z,5.17
2023-03-31T11:29:38.298Z,8.50
2023-03-31T11:32:14.723Z,2.03
2023-03-31T11:35:09.386Z,2.50
2023-03-31T11:37:35.897Z,8.50
2023-03-31T11:40:22.019Z,3.37
2023-03-31T11:42:55.496Z,1.40
2023-03-31T11:45:28.526Z,7.93
2023-03-31T11:48:04.328Z,4.00
2023-03-31T11:50:40.273Z,1.03
2023-03-31T11:53:16.492Z,8.40
2023-03-31T11:55:47.074Z,8.40
2023-03-31T11:58:21.819Z,2.93
2023-03-31T12:00:50.693Z,5.93
2023-03-31T12:03:29.432Z,4.33
2023-03-31T12:06:02.729Z,3.87
2023-03-31T12:08:41.855Z,5.10
2023-03-31T12:11:20.190Z,4.17
2023-03-31T12:13:56.937Z,4.37
2023-03-31T12:16:32.404Z,1.80
2023-03-31T12:19:08.022Z,1.37
2023-03-31T12:21:38.541Z,3.13
2023-03-31T12:24:07.179Z,2.60
2023-03-31T12:26:53.062Z,5.63
2023-03-31T12:29:52.220Z,4.63
2023-03-31T12:32:24.056Z,5.37
2023-03-31T12:35:25.092Z,1.67
2023-03-31T12:37:57.918Z,3.30
2023-03-31T12:40:42.622Z,4.37
2023-03-31T12:43:35.200Z,3.50
2023-03-31T12:46:07.557Z,4.43
2023-03-31T12:48:54.866Z,3.67
2023-03-31T12:51:37.009Z,3.17
2023-03-31T12:54:18.697Z,3.73
2023-03-31T12:57:00.916Z,4.43
2023-03-31T12:59:35.613Z,5.37
2023-03-31T13:02:21.684Z,3.97
2023-03-31T13:04:49.720Z,2.00
2023-03-31T13:07:29.049Z,5.33
2023-03-31T13:10:17.193Z,3.97
2023-03-31T13:13:02.756Z,3.57
2023-03-31T13:15:30.761Z,3.10
2023-03-31T13:18:03.916Z,3.10
2023-03-31T13:20:30.713Z,8.13
2023-03-31T13:23:22.572Z,8.60
2023-03-31T13:25:51.295Z,2.80
2023-03-31T13:28:24.412Z,5.40
2023-03-31T13:30:52.645Z,4.00
2023-03-31T13:33:58.093Z,3.43
2023-03-31T13:36:24.981Z,1.77
2023-03-31T13:39:11.091Z,5.53
2023-03-31T13:41:46.296Z,7.73
2023-03-31T13:44:35.576Z,2.87
2023-03-31T13:47:21.428Z,4.80
2023-03-31T13:50:32.814Z,2.90
2023-03-31T13:52:59.439Z,3.50
2023-03-31T13:55:44.442Z,1.97
2023-03-31T13:58:25.528Z,6.20
2023-03-31T14:01:30.682Z,4.77
2023-03-31T14:04:09.335Z,3.60
2023-03-31T14:06:41.907Z,7.93
2023-03-31T14:09:13.669Z,10.67
2023-03-31T14:11:40.363Z,2.83
2023-03-31T14:14:11.449Z,2.93
2023-03-31T14:16:41.731Z,4.40
2023-03-31T14:19:27.410Z,3.10
2023-03-31T14:22:09.052Z,3.40
2023-03-31T14:24:49.396Z,2.77
2023-03-31T14:27:30.887Z,5.00
2023-03-31T14:30:13.086Z,4.07
2023-03-31T14:32:57.804Z,5.10
2023-03-31T14:35:46.914Z,2.70
2023-03-31T14:38:19.251Z,4.47
2023-03-31T14:40:54.530Z,4.03
2023-03-31T14:43:25.007Z,5.03
2023-03-31T14:46:06.038Z,4.50
2023-03-31T14:48:45.310Z,4.97
2023-03-31T14:51:15.868Z,2.50
2023-03-31T14:53:43.519Z,4.70
2023-03-31T14:56:14.838Z,3.87
2023-03-31T14:58:47.456Z,4.40
2023-03-31T15:01:23.910Z,5.17
2023-03-31T15:03:53.210Z,7.77
2023-03-31T15:06:19.939Z,3.33
2023-03-31T15:08:46.831Z,8.60
2023-03-31T15:11:19.467Z,12.80
2023-03-31T15:14:00.936Z,4.10
2023-03-31T15:16:44.310Z,3.43
2023-03-31T15:19:23.477Z,3.63
2023-03-31T15:22:14.212Z,4.73
2023-03-31T15:24:41.015Z,5.73
2023-03-31T15:27:20.550Z,3.33
2023-03-31T15:29:53.342Z,4.37
2023-03-31T15:32:36.558Z,4.23
2023-03-31T15:35:18.732Z,5.90
2023-03-31T15:37:48.802Z,4.40
2023-03-31T15:40:31.449Z,6.47
2023-03-31T15:43:13.407Z,4.37
2023-03-31T15:45:50.246Z,2.50
2023-03-31T15:48:24.124Z,6.47
2023-03-31T15:50:51.901Z,5.63
2023-03-31T15:53:28.917Z,3.47
2023-03-31T15:55:59.749Z,2.70
2023-03-31T15:58:53.046Z,6.17
2023-03-31T16:01:20.925Z,10.50
2023-03-31T16:03:47.979Z,11.53
2023-03-31T16:06:29.220Z,4.00
2023-03-31T16:09:07.119Z,5.27
2023-03-31T16:11:37.069Z,6.63
2023-03-31T16:14:27.410Z,4.53
2023-03-31T16:17:02.336Z,2.07
2023-03-31T16:19:39.360Z,4.43
2023-03-31T16:22:06.317Z,2.23
2023-03-31T16:24:35.370Z,5.97
2023-03-31T16:27:06.902Z,3.13
2023-03-31T16:29:34.835Z,13.67
2023-03-31T16:32:20.991Z,5.70
2023-03-31T16:34:59.032Z,8.67
2023-03-31T16:37:26.318Z,7.50
2023-03-31T16:39:53.128Z,7.00
2023-03-31T16:42:20.850Z,12.50
2023-03-31T16:44:59.957Z,8.53
2023-03-31T16:50:18.010Z,7.40
2023-03-31T16:52:45.458Z,6.80
2023-03-31T16:55:12.307Z,4.90
2023-03-31T16:57:38.935Z,8.33
2023-03-31T17:00:06.196Z,4.63
2023-03-31T17:02:32.897Z,5.80
2023-03-31T17:07:46.173Z,4.97
2023-03-31T17:10:13.498Z,6.43
2023-03-31T17:12:40.659Z,8.67
2023-03-31T17:15:08.077Z,7.87
2023-03-31T17:17:34.809Z,10.63
2023-03-31T17:20:02.294Z,13.57
2023-03-31T17:22:28.894Z,16.07
2023-03-31T17:24:58.462Z,17.67
2023-03-31T17:27:26.141Z,13.97
2023-03-31T17:29:53.140Z,11.90
2023-03-31T17:32:20.483Z,12.13
2023-03-31T17:34:50.543Z,14.87
2023-03-31T17:37:18.587Z,12.43
2023-03-31T17:39:45.830Z,10.50
2023-03-31T17:42:13.385Z,13.20
2023-03-31T17:44:40.758Z,12.27
2023-03-31T17:47:07.359Z,11.30
2023-03-31T17:49:34.094Z,8.63
2023-03-31T17:52:00.977Z,16.43
2023-03-31T17:54:27.601Z,12.03
2023-03-31T17:56:54.523Z,14.70
2023-03-31T17:59:22.207Z,6.97
2023-03-31T18:01:49.062Z,6.13
2023-03-31T18:04:16.276Z,6.30
2023-03-31T18:06:44.759Z,12.03
2023-03-31T18:09:12.008Z,10.90
2023-03-31T18:11:38.835Z,11.13
2023-03-31T18:14:06.431Z,6.43
2023-03-31T18:16:33.709Z,7.47
2023-03-31T18:19:00.782Z,6.80
2023-03-31T18:21:27.795Z,5.93
2023-03-31T18:23:55.264Z,11.07
2023-03-31T18:26:24.247Z,7.53
2023-03-31T18:28:52.412Z,16.60
2023-03-31T18:31:21.370Z,11.07
2023-03-31T18:33:48.517Z,8.63
2023-03-31T18:36:19.753Z,7.93
2023-03-31T18:38:47.866Z,8.63
2023-03-31T18:41:14.849Z,14.07
2023-03-31T18:43:41.961Z,11.47
2023-03-31T18:46:08.844Z,12.40
2023-03-31T18:48:35.614Z,7.57
2023-03-31T18:51:02.713Z,4.43
2023-03-31T18:53:30.226Z,5.73
2023-03-31T18:55:58.926Z,7.40
2023-03-31T18:58:28.812Z,8.03
2023-03-31T19:00:56.561Z,9.17
2023-03-31T19:03:23.839Z,4.30
2023-03-31T19:05:50.627Z,5.93
2023-03-31T19:08:17.488Z,6.23
2023-03-31T19:10:44.160Z,7.73
2023-03-31T19:13:15.967Z,5.87
2023-03-31T19:15:42.959Z,5.37
2023-03-31T19:18:14.753Z,6.40
2023-03-31T19:20:41.479Z,5.43
2023-03-31T19:23:08.540Z,3.30
2023-03-31T19:25:35.283Z,5.67
2023-03-31T19:28:02.358Z,12.47
2023-03-31T19:30:29.278Z,5.60
2023-03-31T19:32:56.130Z,4.90
2023-03-31T19:35:23.409Z,11.43
2023-03-31T19:37:51.136Z,4.60
2023-03-31T19:40:17.797Z,7.20
2023-03-31T19:42:44.506Z,11.30
2023-03-31T19:45:11.640Z,5.57
2023-03-31T19:47:38.554Z,8.30
2023-03-31T19:50:07.354Z,5.87
2023-03-31T19:52:34.166Z,8.17
2023-03-31T19:55:00.809Z,9.90
2023-03-31T19:57:27.825Z,8.10
2023-03-31T19:59:54.491Z,9.57
2023-03-31T20:02:21.372Z,19.80
2023-03-31T20:04:48.220Z,13.33
2023-03-31T20:07:14.892Z,17.97
2023-03-31T20:09:42.412Z,13.63
2023-03-31T20:12:09.010Z,15.63
2023-03-31T20:14:35.600Z,19.53
2023-03-31T20:17:03.306Z,14.03
2023-03-31T20:19:29.991Z,14.67
2023-03-31T20:21:57.973Z,16.80
2023-03-31T20:24:24.951Z,16.47
2023-03-31T20:26:52.048Z,17.97
2023-03-31T20:29:18.993Z,21.30
2023-03-31T20:31:46.119Z,17.47
2023-03-31T20:34:15.001Z,17.23
2023-03-31T20:36:43.932Z,13.03
2023-03-31T20:39:13.227Z,14.77
2023-03-31T20:41:40.221Z,10.70
2023-03-31T20:44:11.401Z,14.97
2023-03-31T20:46:40.997Z,10.90
2023-03-31T20:49:08.314Z,14.70
2023-03-31T20:51:39.805Z,12.13
2023-03-31T20:54:07.777Z,9.70
2023-03-31T20:56:37.910Z,11.13
2023-03-31T20:59:08.744Z,9.83
2023-03-31T21:01:36.837Z,10.50
2023-03-31T21:04:05.872Z,16.17
2023-03-31T21:06:38.545Z,8.33
2023-03-31T21:09:05.898Z,10.17
2023-03-31T21:11:33.109Z,12.67
2023-03-31T21:14:00.420Z,9.10
2023-03-31T21:16:27.280Z,11.63
2023-03-31T21:18:58.610Z,13.43
2023-03-31T21:21:26.845Z,16.17
2023-03-31T21:23:54.421Z,9.90
2023-03-31T21:26:22.049Z,8.73
2023-03-31T21:28:54.371Z,6.80
2023-03-31T21:31:24.253Z,11.77
2023-03-31T21:33:52.276Z,10.73
2023-03-31T21:36:22.758Z,24.87
2023-03-31T21:38:52.093Z,7.60
2023-03-31T21:41:22.655Z,7.47
2023-03-31T21:43:51.342Z,9.87
2023-03-31T21:46:20.370Z,8.07
2023-03-31T21:48:50.736Z,10.73
2023-03-31T21:51:19.071Z,7.57
2023-03-31T21:53:46.107Z,8.53
2023-03-31T21:56:12.925Z,9.80
2023-03-31T21:58:39.640Z,10.47
2023-03-31T22:01:06.586Z,12.80
2023-03-31T22:03:34.586Z,11.33
2023-03-31T22:06:03.721Z,14.57
2023-03-31T22:08:31.664Z,8.77
2023-03-31T22:11:00.573Z,9.70
2023-03-31T22:13:29.195Z,10.30
2023-03-31T22:15:56.413Z,16.30
2023-03-31T22:18:23.282Z,7.53
2023-03-31T22:20:50.840Z,11.00
2023-03-31T22:23:18.182Z,14.53
2023-03-31T22:25:44.835Z,15.87
2023-03-31T22:28:12.677Z,16.90
2023-03-31T22:30:39.546Z,13.50
2023-03-31T22:33:06.236Z,16.70
2023-03-31T22:35:33.194Z,13.63
2023-03-31T22:38:00.046Z,12.50
2023-03-31T22:40:29.110Z,10.53
2023-03-31T22:42:57.483Z,12.60
2023-03-31T22:45:24.213Z,12.00
2023-03-31T22:47:51.226Z,16.53
2023-03-31T22:50:18.008Z,11.13
2023-03-31T22:52:45.518Z,9.50
2023-03-31T22:55:12.178Z,8.27
2023-03-31T22:57:39.306Z,13.20
2023-03-31T23:00:06.595Z,10.60
2023-03-31T23:02:33.386Z,6.30
2023-03-31T23:05:00.212Z,8.30
2023-03-31T23:07:27.628Z,8.63
2023-03-31T23:09:54.212Z,5.97
2023-03-31T23:12:20.902Z,7.40
2023-03-31T23:14:47.474Z,9.60
2023-03-31T23:17:14.202Z,7.20
2023-03-31T23:19:40.854Z,5.90
2023-03-31T23:22:07.472Z,8.07
2023-03-31T23:24:34.173Z,9.87
2023-03-31T23:27:00.778Z,5.23
2023-03-31T23:29:28.156Z,5.57
2023-03-31T23:31:54.907Z,4.40
2023-03-31T23:34:21.596Z,5.20
2023-03-31T23:36:48.545Z,9.83
2023-03-31T23:39:15.372Z,11.03
2023-03-31T23:41:42.142Z,8.77
2023-03-31T23:44:08.884Z,11.90
2023-03-31T23:46:37.800Z,6.37
2023-03-31T23:49:05.042Z,5.30
2023-03-31T23:51:31.630Z,3.93
2023-03-31T23:53:58.255Z,9.13
2023-03-31T23:56:25.442Z,5.57
2023-03-31T23:58:52.127Z,3.67
